sensor_id;sensor_type;location;lat;lon;timestamp;P1;durP1;ratioP1;P2;durP2;ratioP2
44766;SDS011;30487;48.716;9.272;2024-01-15T00:00:16;20.38;;;8.52;;
44766;SDS011;30487;48.716;9.272;2024-01-15T00:02:42;19.13;;;8.27;;
44766;SDS011;30487;48.716;9.272;2024-01-15T00:05:07;22.17;;;8.75;;
44766;SDS011;30487;48.716;9.272;2024-01-15T00:07:33;20.52;;;8.43;;
44766;SDS011;30487;48.716;9.272;2024-01-15T00:09:59;18.63;;;8.15;;
44766;SDS011;30487;48.716;9.272;2024-01-15T00:12:25;20.45;;;8.85;;
44766;SDS011;30487;48.716;9.272;2024-01-15T00:14:50;20.63;;;8.70;;
44766;SDS011;30487;48.716;9.272;2024-01-15T00:17:16;20.88;;;8.65;;
44766;SDS011;30487;48.716;9.272;2024-01-15T00:19:42;20.77;;;8.55;;
44766;SDS011;30487;48.716;9.272;2024-01-15T00:22:08;19.95;;;8.43;;
44766;SDS011;30487;48.716;9.272;2024-01-15T00:24:33;21.20;;;8.55;;
44766;SDS011;30487;48.716;9.272;2024-01-15T00:26:59;20.23;;;8.52;;
44766;SDS011;30487;48.716;9.272;2024-01-15T00:29:24;20.27;;;8.52;;
44766;SDS011;30487;48.716;9.272;2024-01-15T00:31:50;22.13;;;8.73;;
44766;SDS011;30487;48.716;9.272;2024-01-15T00:34:16;22.83;;;8.93;;
44766;SDS011;30487;48.716;9.272;2024-01-15T00:36:41;21.92;;;8.98;;
44766;SDS011;30487;48.716;9.272;2024-01-15T00:39:07;22.42;;;8.38;;
44766;SDS011;30487;48.716;9.272;2024-01-15T00:41:32;21.35;;;8.93;;
44766;SDS011;30487;48.716;9.272;2024-01-15T00:43:58;21.35;;;8.45;;
44766;SDS011;30487;48.716;9.272;2024-01-15T00:46:23;21.38;;;8.90;;
44766;SDS011;30487;48.716;9.272;2024-01-15T00:48:49;20.85;;;8.20;;
44766;SDS011;30487;48.716;9.272;2024-01-15T00:51:15;21.45;;;8.48;;
44766;SDS011;30487;48.716;9.272;2024-01-15T00:53:40;21.23;;;8.43;;
44766;SDS011;30487;48.716;9.272;2024-01-15T00:56:06;20.95;;;8.77;;
44766;SDS011;30487;48.716;9.272;2024-01-15T00:58:31;23.30;;;8.85;;
44766;SDS011;30487;48.716;9.272;2024-01-15T01:00:57;21.35;;;8.30;;
44766;SDS011;30487;48.716;9.272;2024-01-15T01:03:23;20.63;;;8.40;;
44766;SDS011;30487;48.716;9.272;2024-01-15T01:05:48;20.98;;;8.07;;
44766;SDS011;30487;48.716;9.272;2024-01-15T01:08:17;18.73;;;7.95;;
44766;SDS011;30487;48.716;9.272;2024-01-15T01:10:43;18.85;;;8.50;;
44766;SDS011;30487;48.716;9.272;2024-01-15T01:13:08;19.67;;;8.73;;
44766;SDS011;30487;48.716;9.272;2024-01-15T01:15:34;20.48;;;8.20;;
44766;SDS011;30487;48.716;9.272;2024-01-15T01:18:00;18.52;;;8.43;;
44766;SDS011;30487;48.716;9.272;2024-01-15T01:20:25;20.95;;;8.55;;
44766;SDS011;30487;48.716;9.272;2024-01-15T01:22:51;21.00;;;8.52;;
44766;SDS011;30487;48.716;9.272;2024-01-15T01:25:16;22.33;;;8.85;;
44766;SDS011;30487;48.716;9.272;2024-01-15T01:27:42;20.95;;;8.55;;
44766;SDS011;30487;48.716;9.272;2024-01-15T01:30:08;19.98;;;8.10;;
44766;SDS011;30487;48.716;9.272;2024-01-15T01:32:34;21.98;;;9.30;;
44766;SDS011;30487;48.716;9.272;2024-01-15T01:35:00;19.40;;;8.05;;
44766;SDS011;30487;48.716;9.272;2024-01-15T01:37:25;20.20;;;8.20;;
44766;SDS011;30487;48.716;9.272;2024-01-15T01:39:51;20.17;;;8.25;;
44766;SDS011;30487;48.716;9.272;2024-01-15T01:42:16;18.08;;;8.07;;
44766;SDS011;30487;48.716;9.272;2024-01-15T01:44:42;23.52;;;8.38;;
44766;SDS011;30487;48.716;9.272;2024-01-15T01:47:08;20.98;;;8.05;;
44766;SDS011;30487;48.716;9.272;2024-01-15T01:49:34;23.67;;;8.80;;
44766;SDS011;30487;48.716;9.272;2024-01-15T01:52:01;18.45;;;7.47;;
44766;SDS011;30487;48.716;9.272;2024-01-15T01:54:30;21.42;;;8.40;;
44766;SDS011;30487;48.716;9.272;2024-01-15T01:56:57;22.40;;;8.40;;
44766;SDS011;30487;48.716;9.272;2024-01-15T01:59:23;20.48;;;9.05;;
44766;SDS011;30487;48.716;9.272;2024-01-15T02:01:52;19.17;;;8.18;;
44766;SDS011;30487;48.716;9.272;2024-01-15T02:04:19;18.80;;;8.00;;
44766;SDS011;30487;48.716;9.272;2024-01-15T02:06:46;20.27;;;7.53;;
44766;SDS011;30487;48.716;9.272;2024-01-15T02:09:13;20.27;;;7.97;;
44766;SDS011;30487;48.716;9.272;2024-01-15T02:11:40;17.83;;;7.93;;
44766;SDS011;30487;48.716;9.272;2024-01-15T02:14:06;21.20;;;7.90;;
44766;SDS011;30487;48.716;9.272;2024-01-15T02:16:32;20.52;;;7.88;;
44766;SDS011;30487;48.716;9.272;2024-01-15T02:18:57;19.10;;;7.68;;
44766;SDS011;30487;48.716;9.272;2024-01-15T02:21:23;18.60;;;8.05;;
44766;SDS011;30487;48.716;9.272;2024-01-15T02:23:51;19.20;;;7.88;;
44766;SDS011;30487;48.716;9.272;2024-01-15T02:26:16;21.60;;;7.95;;
44766;SDS011;30487;48.716;9.272;2024-01-15T02:28:42;23.83;;;8.25;;
44766;SDS011;30487;48.716;9.272;2024-01-15T02:31:09;21.35;;;7.72;;
44766;SDS011;30487;48.716;9.272;2024-01-15T02:33:35;18.48;;;7.68;;
44766;SDS011;30487;48.716;9.272;2024-01-15T02:36:00;19.85;;;7.70;;
44766;SDS011;30487;48.716;9.272;2024-01-15T02:38:26;20.52;;;7.70;;
44766;SDS011;30487;48.716;9.272;2024-01-15T02:40:51;19.02;;;7.45;;
44766;SDS011;30487;48.716;9.272;2024-01-15T02:43:17;16.67;;;7.55;;
44766;SDS011;30487;48.716;9.272;2024-01-15T02:45:44;17.63;;;7.30;;
44766;SDS011;30487;48.716;9.272;2024-01-15T02:48:10;19.95;;;7.65;;
44766;SDS011;30487;48.716;9.272;2024-01-15T02:50:35;19.02;;;7.47;;
44766;SDS011;30487;48.716;9.272;2024-01-15T02:53:01;17.25;;;7.15;;
44766;SDS011;30487;48.716;9.272;2024-01-15T02:55:26;17.23;;;7.38;;
44766;SDS011;30487;48.716;9.272;2024-01-15T02:57:54;18.73;;;7.63;;
44766;SDS011;30487;48.716;9.272;2024-01-15T03:00:20;20.27;;;7.70;;
44766;SDS011;30487;48.716;9.272;2024-01-15T03:02:45;18.52;;;7.60;;
44766;SDS011;30487;48.716;9.272;2024-01-15T03:05:11;17.85;;;7.93;;
44766;SDS011;30487;48.716;9.272;2024-01-15T03:07:37;22.50;;;7.53;;
44766;SDS011;30487;48.716;9.272;2024-01-15T03:10:03;18.35;;;7.47;;
44766;SDS011;30487;48.716;9.272;2024-01-15T03:12:29;18.15;;;7.38;;
44766;SDS011;30487;48.716;9.272;2024-01-15T03:14:55;17.40;;;8.07;;
44766;SDS011;30487;48.716;9.272;2024-01-15T03:17:21;20.20;;;7.50;;
44766;SDS011;30487;48.716;9.272;2024-01-15T03:19:46;19.90;;;7.60;;
44766;SDS011;30487;48.716;9.272;2024-01-15T03:22:12;18.67;;;7.70;;
44766;SDS011;30487;48.716;9.272;2024-01-15T03:24:37;19.92;;;7.50;;
44766;SDS011;30487;48.716;9.272;2024-01-15T03:27:03;21.90;;;8.05;;
44766;SDS011;30487;48.716;9.272;2024-01-15T03:29:28;19.25;;;7.60;;
44766;SDS011;30487;48.716;9.272;2024-01-15T03:31:54;20.38;;;8.32;;
44766;SDS011;30487;48.716;9.272;2024-01-15T03:34:20;20.17;;;8.10;;
44766;SDS011;30487;48.716;9.272;2024-01-15T03:36:45;19.60;;;7.68;;
44766;SDS011;30487;48.716;9.272;2024-01-15T03:39:11;21.25;;;7.70;;
44766;SDS011;30487;48.716;9.272;2024-01-15T03:41:36;18.85;;;7.70;;
44766;SDS011;30487;48.716;9.272;2024-01-15T03:44:02;23.48;;;8.48;;
44766;SDS011;30487;48.716;9.272;2024-01-15T03:46:28;18.90;;;7.20;;
44766;SDS011;30487;48.716;9.272;2024-01-15T03:48:53;18.88;;;7.55;;
44766;SDS011;30487;48.716;9.272;2024-01-15T03:51:19;20.23;;;7.78;;
44766;SDS011;30487;48.716;9.272;2024-01-15T03:53:45;19.55;;;7.93;;
44766;SDS011;30487;48.716;9.272;2024-01-15T03:56:10;19.70;;;8.05;;
44766;SDS011;30487;48.716;9.272;2024-01-15T03:58:36;18.92;;;7.60;;
44766;SDS011;30487;48.716;9.272;2024-01-15T04:01:02;20.95;;;8.05;;
44766;SDS011;30487;48.716;9.272;2024-01-15T04:03:28;21.50;;;7.97;;
44766;SDS011;30487;48.716;9.272;2024-01-15T04:05:53;20.00;;;7.57;;
44766;SDS011;30487;48.716;9.272;2024-01-15T04:08:19;17.50;;;7.45;;
44766;SDS011;30487;48.716;9.272;2024-01-15T04:10:44;19.05;;;7.50;;
44766;SDS011;30487;48.716;9.272;2024-01-15T04:13:10;18.77;;;6.78;;
44766;SDS011;30487;48.716;9.272;2024-01-15T04:15:36;22.42;;;7.95;;
44766;SDS011;30487;48.716;9.272;2024-01-15T04:18:02;19.33;;;7.30;;
44766;SDS011;30487;48.716;9.272;2024-01-15T04:20:28;20.30;;;7.50;;
44766;SDS011;30487;48.716;9.272;2024-01-15T04:22:53;20.08;;;7.03;;
44766;SDS011;30487;48.716;9.272;2024-01-15T04:25:19;20.17;;;7.43;;
44766;SDS011;30487;48.716;9.272;2024-01-15T04:27:45;16.33;;;6.43;;
44766;SDS011;30487;48.716;9.272;2024-01-15T04:30:10;16.80;;;6.45;;
44766;SDS011;30487;48.716;9.272;2024-01-15T04:32:36;19.02;;;7.15;;
44766;SDS011;30487;48.716;9.272;2024-01-15T04:35:02;18.02;;;7.15;;
44766;SDS011;30487;48.716;9.272;2024-01-15T04:37:28;16.65;;;6.75;;
44766;SDS011;30487;48.716;9.272;2024-01-15T04:39:53;17.30;;;7.13;;
44766;SDS011;30487;48.716;9.272;2024-01-15T04:42:20;17.65;;;7.03;;
44766;SDS011;30487;48.716;9.272;2024-01-15T04:44:46;17.45;;;7.13;;
44766;SDS011;30487;48.716;9.272;2024-01-15T04:47:12;18.55;;;7.38;;
44766;SDS011;30487;48.716;9.272;2024-01-15T04:49:37;17.70;;;6.57;;
44766;SDS011;30487;48.716;9.272;2024-01-15T04:52:03;18.25;;;7.55;;
44766;SDS011;30487;48.716;9.272;2024-01-15T04:54:29;18.50;;;7.00;;
44766;SDS011;30487;48.716;9.272;2024-01-15T04:56:54;17.73;;;6.53;;
44766;SDS011;30487;48.716;9.272;2024-01-15T04:59:20;18.85;;;7.57;;
44766;SDS011;30487;48.716;9.272;2024-01-15T05:01:46;16.63;;;7.35;;
44766;SDS011;30487;48.716;9.272;2024-01-15T05:04:12;17.60;;;7.63;;
44766;SDS011;30487;48.716;9.272;2024-01-15T05:06:37;18.67;;;7.88;;
44766;SDS011;30487;48.716;9.272;2024-01-15T05:09:03;19.13;;;7.90;;
44766;SDS011;30487;48.716;9.272;2024-01-15T05:11:29;19.83;;;7.60;;
44766;SDS011;30487;48.716;9.272;2024-01-15T05:13:55;19.20;;;7.43;;
44766;SDS011;30487;48.716;9.272;2024-01-15T05:16:20;18.15;;;7.28;;
44766;SDS011;30487;48.716;9.272;2024-01-15T05:18:46;19.60;;;7.72;;
44766;SDS011;30487;48.716;9.272;2024-01-15T05:21:12;18.92;;;7.03;;
44766;SDS011;30487;48.716;9.272;2024-01-15T05:23:37;18.20;;;7.32;;
44766;SDS011;30487;48.716;9.272;2024-01-15T05:26:03;20.33;;;8.05;;
44766;SDS011;30487;48.716;9.272;2024-01-15T05:28:29;20.00;;;7.32;;
44766;SDS011;30487;48.716;9.272;2024-01-15T05:30:54;17.38;;;7.10;;
44766;SDS011;30487;48.716;9.272;2024-01-15T05:33:20;17.73;;;8.20;;
44766;SDS011;30487;48.716;9.272;2024-01-15T05:35:47;19.08;;;7.78;;
44766;SDS011;30487;48.716;9.272;2024-01-15T05:38:12;21.45;;;8.30;;
44766;SDS011;30487;48.716;9.272;2024-01-15T05:40:38;21.83;;;8.70;;
44766;SDS011;30487;48.716;9.272;2024-01-15T05:43:03;19.10;;;7.82;;
44766;SDS011;30487;48.716;9.272;2024-01-15T05:45:30;21.65;;;7.95;;
44766;SDS011;30487;48.716;9.272;2024-01-15T05:47:55;19.23;;;8.05;;
44766;SDS011;30487;48.716;9.272;2024-01-15T05:50:21;27.80;;;8.45;;
44766;SDS011;30487;48.716;9.272;2024-01-15T05:52:47;21.35;;;8.45;;
44766;SDS011;30487;48.716;9.272;2024-01-15T05:55:13;20.80;;;8.20;;
44766;SDS011;30487;48.716;9.272;2024-01-15T05:57:39;24.17;;;8.60;;
44766;SDS011;30487;48.716;9.272;2024-01-15T06:00:04;20.98;;;8.65;;
44766;SDS011;30487;48.716;9.272;2024-01-15T06:02:31;21.27;;;8.43;;
44766;SDS011;30487;48.716;9.272;2024-01-15T06:04:56;21.75;;;7.97;;
44766;SDS011;30487;48.716;9.272;2024-01-15T06:07:22;21.42;;;8.15;;
44766;SDS011;30487;48.716;9.272;2024-01-15T06:09:48;20.13;;;8.18;;
44766;SDS011;30487;48.716;9.272;2024-01-15T06:12:13;21.67;;;8.93;;
44766;SDS011;30487;48.716;9.272;2024-01-15T06:14:39;19.70;;;7.57;;
44766;SDS011;30487;48.716;9.272;2024-01-15T06:17:06;19.00;;;8.10;;
44766;SDS011;30487;48.716;9.272;2024-01-15T06:19:32;19.88;;;7.88;;
44766;SDS011;30487;48.716;9.272;2024-01-15T06:21:57;19.77;;;8.02;;
44766;SDS011;30487;48.716;9.272;2024-01-15T06:24:23;18.52;;;7.85;;
44766;SDS011;30487;48.716;9.272;2024-01-15T06:26:49;20.13;;;7.60;;
44766;SDS011;30487;48.716;9.272;2024-01-15T06:29:14;20.27;;;7.95;;
44766;SDS011;30487;48.716;9.272;2024-01-15T06:31:40;19.88;;;8.07;;
44766;SDS011;30487;48.716;9.272;2024-01-15T06:34:05;16.10;;;7.82;;
44766;SDS011;30487;48.716;9.272;2024-01-15T06:36:31;17.30;;;7.53;;
44766;SDS011;30487;48.716;9.272;2024-01-15T06:38:56;18.77;;;7.90;;
44766;SDS011;30487;48.716;9.272;2024-01-15T06:41:22;21.42;;;8.68;;
44766;SDS011;30487;48.716;9.272;2024-01-15T06:43:48;16.90;;;7.38;;
44766;SDS011;30487;48.716;9.272;2024-01-15T06:46:19;19.33;;;7.72;;
44766;SDS011;30487;48.716;9.272;2024-01-15T06:48:46;17.88;;;7.53;;
44766;SDS011;30487;48.716;9.272;2024-01-15T06:51:11;19.02;;;7.85;;
44766;SDS011;30487;48.716;9.272;2024-01-15T06:53:37;19.95;;;8.18;;
44766;SDS011;30487;48.716;9.272;2024-01-15T06:56:02;20.17;;;7.88;;
44766;SDS011;30487;48.716;9.272;2024-01-15T06:58:28;20.20;;;7.85;;
44766;SDS011;30487;48.716;9.272;2024-01-15T07:00:56;20.85;;;8.05;;
44766;SDS011;30487;48.716;9.272;2024-01-15T07:03:21;19.95;;;7.82;;
44766;SDS011;30487;48.716;9.272;2024-01-15T07:05:47;18.63;;;7.85;;
44766;SDS011;30487;48.716;9.272;2024-01-15T07:08:13;16.58;;;7.32;;
44766;SDS011;30487;48.716;9.272;2024-01-15T07:10:38;17.98;;;7.65;;
44766;SDS011;30487;48.716;9.272;2024-01-15T07:13:04;17.38;;;7.10;;
44766;SDS011;30487;48.716;9.272;2024-01-15T07:15:30;16.75;;;6.57;;
44766;SDS011;30487;48.716;9.272;2024-01-15T07:17:56;16.20;;;6.75;;
44766;SDS011;30487;48.716;9.272;2024-01-15T07:20:22;18.85;;;6.65;;
44766;SDS011;30487;48.716;9.272;2024-01-15T07:22:47;13.13;;;5.78;;
44766;SDS011;30487;48.716;9.272;2024-01-15T07:25:13;17.02;;;7.07;;
44766;SDS011;30487;48.716;9.272;2024-01-15T07:27:38;14.35;;;6.15;;
44766;SDS011;30487;48.716;9.272;2024-01-15T07:30:04;15.18;;;6.50;;
44766;SDS011;30487;48.716;9.272;2024-01-15T07:32:31;16.60;;;6.75;;
44766;SDS011;30487;48.716;9.272;2024-01-15T07:34:57;13.38;;;6.20;;
44766;SDS011;30487;48.716;9.272;2024-01-15T07:37:24;16.98;;;6.63;;
44766;SDS011;30487;48.716;9.272;2024-01-15T07:39:50;16.25;;;6.25;;
44766;SDS011;30487;48.716;9.272;2024-01-15T07:42:15;15.20;;;6.82;;
44766;SDS011;30487;48.716;9.272;2024-01-15T07:44:41;15.80;;;6.43;;
44766;SDS011;30487;48.716;9.272;2024-01-15T07:47:06;19.85;;;7.10;;
44766;SDS011;30487;48.716;9.272;2024-01-15T07:49:33;15.40;;;6.68;;
44766;SDS011;30487;48.716;9.272;2024-01-15T07:51:59;17.73;;;6.93;;
44766;SDS011;30487;48.716;9.272;2024-01-15T07:54:25;16.67;;;6.80;;
44766;SDS011;30487;48.716;9.272;2024-01-15T07:56:57;17.98;;;6.88;;
44766;SDS011;30487;48.716;9.272;2024-01-15T07:59:28;15.05;;;6.18;;
44766;SDS011;30487;48.716;9.272;2024-01-15T08:01:53;16.55;;;6.53;;
44766;SDS011;30487;48.716;9.272;2024-01-15T08:04:19;16.50;;;6.85;;
44766;SDS011;30487;48.716;9.272;2024-01-15T08:06:45;17.67;;;6.07;;
44766;SDS011;30487;48.716;9.272;2024-01-15T08:09:11;16.35;;;5.68;;
44766;SDS011;30487;48.716;9.272;2024-01-15T08:11:40;15.00;;;6.20;;
44766;SDS011;30487;48.716;9.272;2024-01-15T08:14:06;13.30;;;5.57;;
44766;SDS011;30487;48.716;9.272;2024-01-15T08:16:32;11.45;;;5.20;;
44766;SDS011;30487;48.716;9.272;2024-01-15T08:18:58;14.05;;;5.97;;
44766;SDS011;30487;48.716;9.272;2024-01-15T08:21:24;12.48;;;5.43;;
44766;SDS011;30487;48.716;9.272;2024-01-15T08:23:49;13.65;;;5.78;;
44766;SDS011;30487;48.716;9.272;2024-01-15T08:26:18;13.85;;;5.68;;
44766;SDS011;30487;48.716;9.272;2024-01-15T08:28:43;12.63;;;5.05;;
44766;SDS011;30487;48.716;9.272;2024-01-15T08:31:09;14.13;;;5.32;;
44766;SDS011;30487;48.716;9.272;2024-01-15T08:33:34;11.90;;;5.07;;
44766;SDS011;30487;48.716;9.272;2024-01-15T08:36:01;13.65;;;5.68;;
44766;SDS011;30487;48.716;9.272;2024-01-15T08:38:27;15.88;;;5.72;;
44766;SDS011;30487;48.716;9.272;2024-01-15T08:40:53;12.65;;;5.13;;
44766;SDS011;30487;48.716;9.272;2024-01-15T08:43:21;14.15;;;5.82;;
44766;SDS011;30487;48.716;9.272;2024-01-15T08:45:47;12.90;;;5.60;;
44766;SDS011;30487;48.716;9.272;2024-01-15T08:48:13;12.95;;;4.60;;
44766;SDS011;30487;48.716;9.272;2024-01-15T08:50:39;13.30;;;5.25;;
44766;SDS011;30487;48.716;9.272;2024-01-15T08:53:04;12.73;;;5.35;;
44766;SDS011;30487;48.716;9.272;2024-01-15T08:55:30;11.43;;;4.85;;
44766;SDS011;30487;48.716;9.272;2024-01-15T08:57:56;13.50;;;4.82;;
44766;SDS011;30487;48.716;9.272;2024-01-15T09:00:21;12.20;;;5.15;;
44766;SDS011;30487;48.716;9.272;2024-01-15T09:02:47;11.38;;;5.05;;
44766;SDS011;30487;48.716;9.272;2024-01-15T09:05:12;10.30;;;4.45;;
44766;SDS011;30487;48.716;9.272;2024-01-15T09:07:38;13.30;;;5.10;;
44766;SDS011;30487;48.716;9.272;2024-01-15T09:10:04;13.20;;;4.63;;
44766;SDS011;30487;48.716;9.272;2024-01-15T09:12:29;12.38;;;4.85;;
44766;SDS011;30487;48.716;9.272;2024-01-15T09:14:55;10.50;;;4.70;;
44766;SDS011;30487;48.716;9.272;2024-01-15T09:17:21;10.95;;;4.18;;
44766;SDS011;30487;48.716;9.272;2024-01-15T09:19:48;9.80;;;4.05;;
44766;SDS011;30487;48.716;9.272;2024-01-15T09:22:14;10.57;;;4.47;;
44766;SDS011;30487;48.716;9.272;2024-01-15T09:24:43;7.75;;;3.60;;
44766;SDS011;30487;48.716;9.272;2024-01-15T09:27:12;9.85;;;4.00;;
44766;SDS011;30487;48.716;9.272;2024-01-15T09:29:38;10.88;;;3.92;;
44766;SDS011;30487;48.716;9.272;2024-01-15T09:32:06;10.70;;;3.60;;
44766;SDS011;30487;48.716;9.272;2024-01-15T09:34:32;10.60;;;3.53;;
44766;SDS011;30487;48.716;9.272;2024-01-15T09:36:58;9.05;;;3.90;;
44766;SDS011;30487;48.716;9.272;2024-01-15T09:39:25;11.65;;;4.03;;
44766;SDS011;30487;48.716;9.272;2024-01-15T09:41:51;10.73;;;3.92;;
44766;SDS011;30487;48.716;9.272;2024-01-15T09:44:18;10.55;;;3.38;;
44766;SDS011;30487;48.716;9.272;2024-01-15T09:46:44;11.27;;;4.47;;
44766;SDS011;30487;48.716;9.272;2024-01-15T09:49:11;12.10;;;3.83;;
44766;SDS011;30487;48.716;9.272;2024-01-15T09:51:37;9.98;;;3.95;;
44766;SDS011;30487;48.716;9.272;2024-01-15T09:54:04;10.23;;;3.90;;
44766;SDS011;30487;48.716;9.272;2024-01-15T09:56:30;8.38;;;3.80;;
44766;SDS011;30487;48.716;9.272;2024-01-15T09:58:56;9.60;;;3.33;;
44766;SDS011;30487;48.716;9.272;2024-01-15T10:01:22;7.15;;;3.60;;
44766;SDS011;30487;48.716;9.272;2024-01-15T10:03:48;9.55;;;3.28;;
44766;SDS011;30487;48.716;9.272;2024-01-15T10:06:16;9.13;;;3.30;;
44766;SDS011;30487;48.716;9.272;2024-01-15T10:08:47;10.68;;;3.42;;
44766;SDS011;30487;48.716;9.272;2024-01-15T10:11:14;10.25;;;3.67;;
44766;SDS011;30487;48.716;9.272;2024-01-15T10:13:40;7.78;;;3.38;;
44766;SDS011;30487;48.716;9.272;2024-01-15T10:16:06;8.25;;;3.88;;
44766;SDS011;30487;48.716;9.272;2024-01-15T10:18:32;9.48;;;3.58;;
44766;SDS011;30487;48.716;9.272;2024-01-15T10:20:58;8.55;;;3.80;;
44766;SDS011;30487;48.716;9.272;2024-01-15T10:23:26;8.82;;;3.40;;
44766;SDS011;30487;48.716;9.272;2024-01-15T10:25:52;9.07;;;3.53;;
44766;SDS011;30487;48.716;9.272;2024-01-15T10:28:18;9.88;;;3.90;;
44766;SDS011;30487;48.716;9.272;2024-01-15T10:30:44;7.45;;;3.05;;
44766;SDS011;30487;48.716;9.272;2024-01-15T10:33:10;10.02;;;3.47;;
44766;SDS011;30487;48.716;9.272;2024-01-15T10:35:37;9.23;;;3.45;;
44766;SDS011;30487;48.716;9.272;2024-01-15T10:38:06;8.18;;;3.50;;
44766;SDS011;30487;48.716;9.272;2024-01-15T10:40:32;9.23;;;3.60;;
44766;SDS011;30487;48.716;9.272;2024-01-15T10:42:58;8.55;;;3.40;;
44766;SDS011;30487;48.716;9.272;2024-01-15T10:45:23;9.48;;;3.75;;
44766;SDS011;30487;48.716;9.272;2024-01-15T10:47:49;8.45;;;3.45;;
44766;SDS011;30487;48.716;9.272;2024-01-15T10:50:15;8.45;;;3.38;;
44766;SDS011;30487;48.716;9.272;2024-01-15T10:52:41;11.57;;;3.60;;
44766;SDS011;30487;48.716;9.272;2024-01-15T10:55:08;8.32;;;3.42;;
44766;SDS011;30487;48.716;9.272;2024-01-15T10:57:35;11.07;;;3.42;;
44766;SDS011;30487;48.716;9.272;2024-01-15T11:00:02;7.65;;;3.20;;
44766;SDS011;30487;48.716;9.272;2024-01-15T11:02:30;8.32;;;3.50;;
44766;SDS011;30487;48.716;9.272;2024-01-15T11:05:00;13.05;;;3.67;;
44766;SDS011;30487;48.716;9.272;2024-01-15T11:07:26;8.95;;;3.60;;
44766;SDS011;30487;48.716;9.272;2024-01-15T11:09:51;9.45;;;3.67;;
44766;SDS011;30487;48.716;9.272;2024-01-15T11:12:17;8.18;;;3.28;;
44766;SDS011;30487;48.716;9.272;2024-01-15T11:14:47;6.43;;;3.15;;
44766;SDS011;30487;48.716;9.272;2024-01-15T11:17:15;8.88;;;3.80;;
44766;SDS011;30487;48.716;9.272;2024-01-15T11:22:08;11.70;;;3.25;;
44766;SDS011;30487;48.716;9.272;2024-01-15T11:24:37;12.85;;;3.85;;
44766;SDS011;30487;48.716;9.272;2024-01-15T11:27:04;10.00;;;3.22;;
44766;SDS011;30487;48.716;9.272;2024-01-15T11:29:32;9.93;;;3.22;;
44766;SDS011;30487;48.716;9.272;2024-01-15T11:32:02;7.70;;;3.63;;
44766;SDS011;30487;48.716;9.272;2024-01-15T11:37:18;9.63;;;3.33;;
44766;SDS011;30487;48.716;9.272;2024-01-15T11:39:44;7.55;;;3.35;;
44766;SDS011;30487;48.716;9.272;2024-01-15T11:42:11;8.82;;;3.63;;
44766;SDS011;30487;48.716;9.272;2024-01-15T11:44:38;9.20;;;3.72;;
44766;SDS011;30487;48.716;9.272;2024-01-15T11:47:08;9.65;;;3.33;;
44766;SDS011;30487;48.716;9.272;2024-01-15T11:52:36;8.95;;;3.40;;
44766;SDS011;30487;48.716;9.272;2024-01-15T11:57:50;7.25;;;3.60;;
44766;SDS011;30487;48.716;9.272;2024-01-15T12:00:19;8.73;;;3.33;;
44766;SDS011;30487;48.716;9.272;2024-01-15T12:02:46;8.02;;;3.17;;
44766;SDS011;30487;48.716;9.272;2024-01-15T12:05:14;9.80;;;3.58;;
44766;SDS011;30487;48.716;9.272;2024-01-15T12:07:41;11.98;;;3.30;;
44766;SDS011;30487;48.716;9.272;2024-01-15T12:10:15;9.82;;;3.55;;
44766;SDS011;30487;48.716;9.272;2024-01-15T12:15:29;7.68;;;3.35;;
44766;SDS011;30487;48.716;9.272;2024-01-15T12:17:55;10.40;;;3.60;;
44766;SDS011;30487;48.716;9.272;2024-01-15T12:20:26;8.43;;;3.70;;
44766;SDS011;30487;48.716;9.272;2024-01-15T12:22:51;10.45;;;3.80;;
44766;SDS011;30487;48.716;9.272;2024-01-15T12:25:17;7.50;;;3.75;;
44766;SDS011;30487;48.716;9.272;2024-01-15T12:27:43;10.23;;;4.30;;
44766;SDS011;30487;48.716;9.272;2024-01-15T12:30:12;8.30;;;3.60;;
44766;SDS011;30487;48.716;9.272;2024-01-15T12:32:39;8.65;;;4.05;;
44766;SDS011;30487;48.716;9.272;2024-01-15T12:35:06;8.95;;;3.72;;
44766;SDS011;30487;48.716;9.272;2024-01-15T12:37:34;8.40;;;3.65;;
44766;SDS011;30487;48.716;9.272;2024-01-15T12:40:11;10.10;;;4.20;;
44766;SDS011;30487;48.716;9.272;2024-01-15T12:42:39;10.13;;;4.07;;
44766;SDS011;30487;48.716;9.272;2024-01-15T12:45:05;10.45;;;4.13;;
44766;SDS011;30487;48.716;9.272;2024-01-15T12:47:31;9.95;;;4.15;;
44766;SDS011;30487;48.716;9.272;2024-01-15T12:49:57;8.60;;;4.07;;
44766;SDS011;30487;48.716;9.272;2024-01-15T12:52:26;10.55;;;4.53;;
44766;SDS011;30487;48.716;9.272;2024-01-15T12:54:52;9.25;;;4.15;;
44766;SDS011;30487;48.716;9.272;2024-01-15T12:57:18;8.35;;;4.28;;
44766;SDS011;30487;48.716;9.272;2024-01-15T12:59:44;11.75;;;4.40;;
44766;SDS011;30487;48.716;9.272;2024-01-15T13:02:10;9.68;;;4.40;;
44766;SDS011;30487;48.716;9.272;2024-01-15T13:04:36;10.27;;;4.72;;
44766;SDS011;30487;48.716;9.272;2024-01-15T13:07:02;12.45;;;4.70;;
44766;SDS011;30487;48.716;9.272;2024-01-15T13:09:28;8.85;;;4.40;;
44766;SDS011;30487;48.716;9.272;2024-01-15T13:11:54;9.70;;;4.18;;
44766;SDS011;30487;48.716;9.272;2024-01-15T13:14:20;8.93;;;4.45;;
44766;SDS011;30487;48.716;9.272;2024-01-15T13:16:46;9.82;;;4.50;;
44766;SDS011;30487;48.716;9.272;2024-01-15T13:19:11;12.93;;;4.43;;
44766;SDS011;30487;48.716;9.272;2024-01-15T13:21:38;8.80;;;4.05;;
44766;SDS011;30487;48.716;9.272;2024-01-15T13:24:05;10.02;;;4.40;;
44766;SDS011;30487;48.716;9.272;2024-01-15T13:26:33;9.02;;;4.35;;
44766;SDS011;30487;48.716;9.272;2024-01-15T13:29:02;9.68;;;4.32;;
44766;SDS011;30487;48.716;9.272;2024-01-15T13:31:28;8.93;;;4.22;;
44766;SDS011;30487;48.716;9.272;2024-01-15T13:33:58;8.02;;;3.95;;
44766;SDS011;30487;48.716;9.272;2024-01-15T13:36:24;8.00;;;3.60;;
44766;SDS011;30487;48.716;9.272;2024-01-15T13:38:50;10.32;;;4.18;;
44766;SDS011;30487;48.716;9.272;2024-01-15T13:41:17;9.98;;;3.67;;
44766;SDS011;30487;48.716;9.272;2024-01-15T13:43:52;9.45;;;3.80;;
44766;SDS011;30487;48.716;9.272;2024-01-15T13:46:19;7.70;;;3.70;;
44766;SDS011;30487;48.716;9.272;2024-01-15T13:48:45;8.93;;;3.75;;
44766;SDS011;30487;48.716;9.272;2024-01-15T13:51:11;8.40;;;3.33;;
44766;SDS011;30487;48.716;9.272;2024-01-15T13:53:39;8.13;;;3.65;;
44766;SDS011;30487;48.716;9.272;2024-01-15T13:56:05;6.95;;;3.65;;
44766;SDS011;30487;48.716;9.272;2024-01-15T13:58:32;9.18;;;4.03;;
44766;SDS011;30487;48.716;9.272;2024-01-15T14:00:58;9.73;;;3.88;;
44766;SDS011;30487;48.716;9.272;2024-01-15T14:03:24;7.10;;;3.60;;
44766;SDS011;30487;48.716;9.272;2024-01-15T14:05:50;8.10;;;3.35;;
44766;SDS011;30487;48.716;9.272;2024-01-15T14:08:16;10.13;;;3.60;;
44766;SDS011;30487;48.716;9.272;2024-01-15T14:10:42;7.25;;;2.90;;
44766;SDS011;30487;48.716;9.272;2024-01-15T14:13:08;10.45;;;3.30;;
44766;SDS011;30487;48.716;9.272;2024-01-15T14:15:34;8.20;;;3.30;;
44766;SDS011;30487;48.716;9.272;2024-01-15T14:17:59;8.57;;;3.45;;
44766;SDS011;30487;48.716;9.272;2024-01-15T14:20:26;6.82;;;3.15;;
44766;SDS011;30487;48.716;9.272;2024-01-15T14:22:52;7.35;;;3.15;;
44766;SDS011;30487;48.716;9.272;2024-01-15T14:25:19;7.07;;;2.85;;
44766;SDS011;30487;48.716;9.272;2024-01-15T14:27:45;6.28;;;2.92;;
44766;SDS011;30487;48.716;9.272;2024-01-15T14:30:11;7.72;;;3.30;;
44766;SDS011;30487;48.716;9.272;2024-01-15T14:32:38;6.30;;;3.20;;
44766;SDS011;30487;48.716;9.272;2024-01-15T14:35:04;7.22;;;3.10;;
44766;SDS011;30487;48.716;9.272;2024-01-15T14:37:31;4.93;;;2.53;;
44766;SDS011;30487;48.716;9.272;2024-01-15T14:39:56;6.35;;;2.70;;
44766;SDS011;30487;48.716;9.272;2024-01-15T14:42:22;10.45;;;3.00;;
44766;SDS011;30487;48.716;9.272;2024-01-15T14:44:49;5.40;;;2.55;;